createdAt,value
2023-03-08T00:02:04.156Z,99.90
2023-03-08T00:04:30.670Z,99.90
2023-03-08T00:06:57.182Z,99.90
2023-03-08T00:09:23.694Z,99.90
2023-03-08T00:11:50.181Z,99.90
2023-03-08T00:14:17.100Z,99.90
2023-03-08T00:16:43.597Z,99.90
2023-03-08T00:19:10.069Z,99.90
2023-03-08T00:21:36.568Z,99.90
2023-03-08T00:24:03.150Z,99.90
2023-03-08T00:26:29.690Z,99.90
2023-03-08T00:28:56.246Z,99.90
2023-03-08T00:31:22.775Z,99.90
2023-03-08T00:33:54.240Z,99.90
2023-03-08T00:36:21.045Z,99.90
2023-03-08T00:38:50.326Z,99.90
2023-03-08T00:41:16.969Z,99.90
2023-03-08T00:43:43.780Z,99.90
2023-03-08T00:46:11.656Z,99.90
2023-03-08T00:48:38.174Z,99.90
2023-03-08T00:51:04.845Z,99.90
2023-03-08T00:53:31.338Z,99.90
2023-03-08T00:56:00.069Z,99.90
2023-03-08T00:58:29.729Z,99.90
2023-03-08T01:00:57.131Z,99.90
2023-03-08T01:03:25.204Z,99.90
2023-03-08T01:05:54.894Z,99.90
2023-03-08T01:08:24.630Z,99.90
2023-03-08T01:10:59.620Z,99.90
2023-03-08T01:13:30.417Z,99.90
2023-03-08T01:15:57.438Z,99.90
2023-03-08T01:18:23.928Z,99.90
2023-03-08T01:21:04.513Z,99.90
2023-03-08T01:23:31.745Z,99.90
2023-03-08T01:26:17.441Z,99.90
2023-03-08T01:28:44.771Z,99.90
2023-03-08T01:31:19.716Z,99.90
2023-03-08T01:33:46.793Z,99.90
2023-03-08T01:36:18.256Z,99.90
2023-03-08T01:38:47.260Z,99.90
2023-03-08T01:41:22.667Z,99.90
2023-03-08T01:43:49.416Z,99.90
2023-03-08T01:46:37.410Z,99.90
2023-03-08T01:49:18.939Z,99.90
2023-03-08T01:52:21.010Z,99.90
2023-03-08T01:54:57.862Z,99.90
2023-03-08T01:57:32.504Z,99.90
2023-03-08T02:00:08.712Z,99.90
2023-03-08T02:04:59.650Z,99.90
2023-03-08T02:07:26.129Z,99.90
2023-03-08T02:09:52.800Z,99.90
2023-03-08T02:12:21.513Z,99.90
2023-03-08T02:14:49.095Z,99.90
2023-03-08T02:17:15.692Z,99.90
2023-03-08T02:19:55.254Z,99.90
2023-03-08T02:22:21.888Z,99.90
2023-03-08T02:24:48.660Z,99.90
2023-03-08T02:27:25.339Z,99.90
2023-03-08T02:29:52.208Z,99.90
2023-03-08T02:32:18.916Z,99.90
2023-03-08T02:34:45.433Z,99.90
2023-03-08T02:37:11.887Z,99.90
2023-03-08T02:39:38.373Z,99.90
2023-03-08T02:42:05.078Z,99.90
2023-03-08T02:44:31.538Z,99.90
2023-03-08T02:46:58.036Z,99.90
2023-03-08T02:49:24.549Z,99.90
2023-03-08T02:51:51.047Z,99.90
2023-03-08T02:54:17.522Z,99.90
2023-03-08T02:56:44.009Z,99.90
2023-03-08T02:59:10.504Z,99.90
2023-03-08T03:01:37.060Z,99.90
2023-03-08T03:04:03.782Z,99.90
2023-03-08T03:06:30.345Z,99.90
2023-03-08T03:08:56.890Z,99.90
2023-03-08T03:11:23.648Z,99.90
2023-03-08T03:13:59.703Z,99.90
2023-03-08T03:16:28.864Z,99.90
2023-03-08T03:18:56.352Z,99.90
2023-03-08T03:21:23.869Z,99.90
2023-03-08T03:23:50.680Z,99.90
2023-03-08T03:26:21.050Z,99.90
2023-03-08T03:28:47.956Z,99.90
2023-03-08T03:31:19.705Z,99.90
2023-03-08T03:33:47.690Z,99.90
2023-03-08T03:36:17.837Z,99.90
2023-03-08T03:38:45.286Z,99.90
2023-03-08T03:41:16.413Z,99.90
2023-03-08T03:43:43.468Z,99.90
2023-03-08T03:46:16.781Z,99.90
2023-03-08T03:48:43.639Z,99.90
2023-03-08T03:51:13.764Z,99.90
2023-03-08T03:53:41.261Z,99.90
2023-03-08T03:56:14.908Z,99.90
2023-03-08T03:58:41.786Z,99.90
2023-03-08T04:01:16.200Z,99.90
2023-03-08T04:03:43.236Z,99.90
2023-03-08T04:06:15.928Z,99.90
2023-03-08T04:08:43.555Z,99.90
2023-03-08T04:11:13.026Z,99.90
2023-03-08T04:13:40.004Z,99.90
2023-03-08T04:16:23.591Z,99.90
2023-03-08T04:18:55.475Z,99.90
2023-03-08T04:21:22.743Z,99.90
2023-03-08T04:23:49.518Z,99.90
2023-03-08T04:26:16.692Z,99.90
2023-03-08T04:28:43.720Z,99.90
2023-03-08T04:31:26.062Z,99.90
2023-03-08T04:33:53.349Z,99.90
2023-03-08T04:36:20.897Z,99.90
2023-03-08T04:38:49.083Z,99.90
2023-03-08T04:41:15.926Z,99.90
2023-03-08T04:43:49.484Z,99.90
2023-03-08T04:46:18.664Z,99.90
2023-03-08T04:48:46.145Z,99.90
2023-03-08T04:51:15.363Z,99.90
2023-03-08T04:53:43.806Z,99.90
2023-03-08T04:56:11.768Z,99.90
2023-03-08T04:58:38.414Z,99.90
2023-03-08T05:01:17.476Z,99.90
2023-03-08T05:03:45.149Z,99.90
2023-03-08T05:06:15.760Z,99.90
2023-03-08T05:08:42.289Z,99.90
2023-03-08T05:11:09.434Z,99.90
2023-03-08T05:13:38.608Z,99.90
2023-03-08T05:16:07.380Z,99.90
2023-03-08T05:18:34.350Z,99.90
2023-03-08T05:21:05.192Z,99.90
2023-03-08T05:23:32.880Z,99.90
2023-03-08T05:26:01.931Z,99.90
2023-03-08T05:28:32.660Z,99.90
2023-03-08T05:31:15.127Z,99.90
2023-03-08T05:33:45.602Z,99.90
2023-03-08T05:36:16.688Z,99.90
2023-03-08T05:38:44.038Z,99.90
2023-03-08T05:41:15.970Z,99.90
2023-03-08T05:43:42.591Z,99.90
2023-03-08T05:46:14.337Z,99.90
2023-03-08T05:48:40.899Z,99.90
2023-03-08T05:51:14.167Z,99.90
2023-03-08T05:53:41.337Z,99.90
2023-03-08T05:56:13.984Z,99.90
2023-03-08T05:58:43.353Z,99.90
2023-03-08T06:01:27.341Z,99.90
2023-03-08T06:03:57.236Z,99.90
2023-03-08T06:06:26.403Z,99.90
2023-03-08T06:08:55.337Z,99.90
2023-03-08T06:11:22.773Z,99.90
2023-03-08T06:13:49.277Z,99.90
2023-03-08T06:16:15.927Z,99.90
2023-03-08T06:18:43.235Z,99.90
2023-03-08T06:21:18.396Z,99.90
2023-03-08T06:23:45.740Z,99.90
2023-03-08T06:26:12.896Z,99.90
2023-03-08T06:28:40.465Z,99.90
2023-03-08T06:31:11.675Z,99.90
2023-03-08T06:33:38.279Z,99.90
2023-03-08T06:36:13.152Z,99.90
2023-03-08T06:38:40.960Z,99.90
2023-03-08T06:41:09.778Z,99.90
2023-03-08T06:43:36.590Z,99.90
2023-03-08T06:46:10.090Z,99.90
2023-03-08T06:48:37.477Z,99.90
2023-03-08T06:51:05.223Z,99.90
2023-03-08T06:53:35.377Z,99.90
2023-03-08T06:56:03.036Z,99.90
2023-03-08T06:58:30.647Z,99.90
2023-03-08T07:00:59.218Z,99.90
2023-03-08T07:03:27.285Z,99.90
2023-03-08T07:06:03.279Z,99.90
2023-03-08T07:08:29.952Z,99.90
2023-03-08T07:10:57.645Z,99.90
2023-03-08T07:13:24.271Z,99.90
2023-03-08T07:15:51.534Z,99.90
2023-03-08T07:18:19.226Z,99.90
2023-03-08T07:20:50.583Z,99.90
2023-03-08T07:23:17.111Z,99.90
2023-03-08T07:25:43.564Z,99.90
2023-03-08T07:28:10.033Z,99.90
2023-03-08T07:30:36.508Z,99.90
2023-03-08T07:33:03.062Z,99.90
2023-03-08T07:35:29.717Z,99.90
2023-03-08T07:37:56.332Z,99.90
2023-03-08T07:40:22.983Z,99.90
2023-03-08T07:42:49.528Z,99.90
2023-03-08T07:45:16.117Z,99.90
2023-03-08T07:47:42.581Z,99.90
2023-03-08T07:50:10.677Z,99.90
2023-03-08T07:52:37.191Z,99.90
2023-03-08T07:55:04.358Z,99.90
2023-03-08T07:57:30.818Z,99.90
2023-03-08T07:59:57.287Z,99.90
2023-03-08T08:02:23.821Z,99.90
2023-03-08T08:04:50.434Z,99.90
2023-03-08T08:07:17.454Z,99.90
2023-03-08T08:09:43.988Z,99.90
2023-03-08T08:12:10.596Z,99.90
2023-03-08T08:14:37.239Z,99.90
2023-03-08T08:17:04.301Z,99.90
2023-03-08T08:19:31.295Z,99.90
2023-03-08T08:21:57.897Z,99.90
2023-03-08T08:24:24.425Z,99.90
2023-03-08T08:26:50.928Z,99.90
2023-03-08T08:29:17.431Z,99.90
2023-03-08T08:31:43.933Z,99.90
2023-03-08T08:34:10.645Z,99.90
2023-03-08T08:36:37.146Z,99.70
2023-03-08T08:39:04.073Z,99.60
2023-03-08T08:41:31.567Z,99.90
2023-03-08T08:43:59.424Z,99.50
2023-03-08T08:46:27.523Z,97.90
2023-03-08T08:48:55.747Z,97.40
2023-03-08T08:51:22.373Z,98.10
2023-03-08T08:53:48.864Z,98.30
2023-03-08T08:56:28.934Z,97.50
2023-03-08T08:58:59.683Z,97.80
2023-03-08T09:01:30.757Z,97.60
2023-03-08T09:03:57.590Z,96.90
2023-03-08T09:06:25.878Z,96.10
2023-03-08T09:08:55.652Z,96.50
2023-03-08T09:11:24.145Z,96.60
2023-03-08T09:13:51.380Z,96.10
2023-03-08T09:16:31.668Z,96.10
2023-03-08T09:19:01.754Z,96.10
2023-03-08T09:21:30.379Z,95.60
2023-03-08T09:24:03.008Z,95.10
2023-03-08T09:26:31.353Z,94.90
2023-03-08T09:29:06.296Z,94.20
2023-03-08T09:31:37.505Z,95.10
2023-03-08T09:34:07.914Z,94.80
2023-03-08T09:36:41.588Z,94.20
2023-03-08T09:39:11.238Z,94.30
2023-03-08T09:42:26.686Z,94.50
2023-03-08T09:45:17.020Z,94.20
2023-03-08T09:48:18.426Z,93.80
2023-03-08T09:50:55.306Z,94.20
2023-03-08T09:53:38.145Z,94.50
2023-03-08T09:56:49.436Z,94.40
2023-03-08T09:59:33.118Z,94.00
2023-03-08T10:02:46.139Z,93.60
2023-03-08T10:08:31.866Z,93.30
2023-03-08T10:14:01.174Z,93.60
2023-03-08T10:16:43.465Z,93.60
2023-03-08T10:19:43.521Z,94.00
2023-03-08T10:22:29.601Z,93.30
2023-03-08T10:25:15.298Z,93.30
2023-03-08T10:27:41.812Z,92.90
2023-03-08T10:30:16.535Z,92.70
2023-03-08T10:32:46.755Z,92.80
2023-03-08T10:35:13.978Z,93.10
2023-03-08T10:37:41.001Z,91.60
2023-03-08T10:40:19.764Z,91.60
2023-03-08T10:42:53.169Z,90.60
2023-03-08T10:56:53.081Z,90.00
2023-03-08T10:59:27.403Z,89.20
2023-03-08T11:01:58.395Z,88.10
2023-03-08T11:04:27.901Z,86.50
2023-03-08T11:06:54.698Z,85.80
2023-03-08T11:09:36.176Z,86.80
2023-03-08T11:12:02.785Z,85.90
2023-03-08T11:14:30.637Z,86.60
2023-03-08T11:17:20.170Z,87.10
2023-03-08T11:20:57.180Z,86.60
2023-03-08T11:23:48.363Z,86.70
2023-03-08T11:26:44.298Z,87.80
2023-03-08T11:32:49.794Z,87.80
2023-03-08T11:35:48.583Z,87.90
2023-03-08T11:38:27.847Z,88.80
2023-03-08T11:48:36.168Z,88.00
2023-03-08T11:54:53.108Z,88.80
2023-03-08T11:57:20.337Z,87.00
2023-03-08T11:59:59.429Z,88.50
2023-03-08T12:02:36.684Z,88.90
2023-03-08T12:05:32.744Z,89.40
2023-03-08T12:08:28.904Z,88.70
2023-03-08T12:11:37.729Z,89.60
2023-03-08T12:15:12.940Z,89.50
2023-03-08T12:17:49.760Z,89.50
2023-03-08T12:20:19.451Z,88.50
2023-03-08T12:22:59.777Z,89.00
2023-03-08T12:25:35.238Z,89.50
2023-03-08T12:28:52.561Z,89.10
2023-03-08T12:31:41.860Z,89.80
2023-03-08T12:35:57.796Z,89.70
2023-03-08T12:39:06.125Z,90.20
2023-03-08T12:41:32.833Z,88.90
2023-03-08T12:44:44.743Z,89.80
2023-03-08T12:47:21.593Z,88.00
2023-03-08T12:49:57.672Z,88.50
2023-03-08T12:52:34.017Z,88.00
2023-03-08T12:55:30.506Z,88.80
2023-03-08T12:58:01.407Z,88.90
2023-03-08T13:00:37.417Z,88.50
2023-03-08T13:04:38.684Z,88.90
2023-03-08T13:08:50.559Z,89.00
2023-03-08T13:11:18.512Z,89.00
2023-03-08T13:13:57.284Z,88.80
2023-03-08T13:16:38.552Z,89.60
2023-03-08T13:19:30.149Z,90.00
2023-03-08T13:29:34.680Z,90.00
2023-03-08T13:32:16.010Z,90.00
2023-03-08T13:34:45.548Z,91.00
2023-03-08T13:37:27.447Z,91.10
2023-03-08T13:39:57.084Z,91.40
2023-03-08T13:42:26.751Z,91.50
2023-03-08T13:45:17.853Z,91.20
2023-03-08T13:47:46.479Z,91.90
2023-03-08T13:50:31.576Z,91.90
2023-03-08T13:53:01.421Z,92.00
2023-03-08T13:55:39.256Z,92.20
2023-03-08T13:58:06.374Z,91.60
2023-03-08T14:00:35.334Z,91.60
2023-03-08T14:03:06.842Z,92.20
2023-03-08T14:05:42.830Z,92.20
2023-03-08T14:08:24.180Z,92.40
2023-03-08T14:11:06.209Z,91.80
2023-03-08T14:13:40.671Z,92.00
2023-03-08T14:16:21.763Z,91.10
2023-03-08T14:18:48.327Z,91.40
2023-03-08T14:21:23.286Z,92.00
2023-03-08T14:24:01.625Z,91.50
2023-03-08T14:26:39.974Z,91.60
2023-03-08T14:29:41.625Z,89.80
2023-03-08T14:32:32.149Z,85.40
2023-03-08T14:35:21.997Z,84.50
2023-03-08T14:37:48.696Z,83.80
2023-03-08T14:40:35.643Z,82.40
2023-03-08T14:43:16.543Z,83.70
2023-03-08T14:46:03.440Z,82.60
2023-03-08T14:48:38.026Z,83.20
2023-03-08T14:53:35.366Z,82.40
2023-03-08T14:56:23.015Z,81.40
2023-03-08T14:58:51.693Z,82.00
2023-03-08T15:01:31.301Z,82.60
2023-03-08T15:03:57.989Z,81.90
2023-03-08T15:06:35.263Z,81.80
2023-03-08T15:09:06.691Z,81.60
2023-03-08T15:11:33.837Z,81.20
2023-03-08T15:14:00.717Z,80.50
2023-03-08T15:16:27.680Z,80.70
2023-03-08T15:18:54.579Z,80.40
2023-03-08T15:21:27.428Z,80.80
2023-03-08T15:23:54.884Z,80.40
2023-03-08T15:26:30.921Z,80.70
2023-03-08T15:28:58.265Z,81.00
2023-03-08T15:31:24.891Z,81.30
2023-03-08T15:33:51.427Z,82.20
2023-03-08T15:36:18.771Z,81.00
2023-03-08T15:38:45.822Z,81.20
2023-03-08T15:41:16.949Z,80.90
2023-03-08T15:43:43.805Z,80.70
2023-03-08T15:46:14.808Z,81.60
2023-03-08T15:48:44.715Z,81.70
2023-03-08T15:51:24.815Z,81.30
2023-03-08T15:53:51.296Z,81.00
2023-03-08T15:56:17.814Z,81.90
2023-03-08T15:58:44.277Z,82.00
2023-03-08T16:01:11.139Z,82.40
2023-03-08T16:03:37.651Z,83.00
2023-03-08T16:06:13.157Z,82.60
2023-03-08T16:08:41.396Z,82.70
2023-03-08T16:11:15.085Z,83.10
2023-03-08T16:13:41.953Z,83.30
2023-03-08T16:16:09.059Z,83.90
2023-03-08T16:18:36.479Z,83.50
2023-03-08T16:21:10.390Z,83.40
2023-03-08T16:23:40.781Z,82.60
2023-03-08T16:26:16.735Z,83.20
2023-03-08T16:28:46.513Z,82.70
2023-03-08T16:31:14.570Z,82.00
2023-03-08T16:33:41.140Z,82.50
2023-03-08T16:36:07.857Z,83.20
2023-03-08T16:38:34.518Z,83.00
2023-03-08T16:41:17.111Z,82.60
2023-03-08T16:43:47.332Z,83.20
2023-03-08T16:46:18.255Z,83.60
2023-03-08T16:48:45.212Z,84.10
2023-03-08T16:51:17.439Z,84.10
2023-03-08T16:53:44.164Z,85.20
2023-03-08T16:56:22.876Z,85.70
2023-03-08T16:58:50.078Z,86.00
2023-03-08T17:01:18.961Z,86.10
2023-03-08T17:03:45.736Z,85.00
2023-03-08T17:06:16.219Z,85.30
2023-03-08T17:08:42.719Z,85.60
2023-03-08T17:11:22.291Z,86.20
2023-03-08T17:13:55.654Z,85.80
2023-03-08T17:16:26.623Z,85.30
2023-03-08T17:18:53.970Z,85.20
2023-03-08T17:21:22.398Z,85.90
2023-03-08T17:23:50.340Z,85.00
2023-03-08T17:26:20.121Z,86.00
2023-03-08T17:28:48.948Z,85.10
2023-03-08T17:31:18.727Z,84.10
2023-03-08T17:33:46.312Z,83.80
2023-03-08T17:36:14.276Z,84.10
2023-03-08T17:38:41.401Z,83.30
2023-03-08T17:41:13.248Z,83.30
2023-03-08T17:43:41.362Z,83.80
2023-03-08T17:46:18.390Z,84.70
2023-03-08T17:48:45.477Z,84.10
2023-03-08T17:51:16.635Z,84.10
2023-03-08T17:53:44.643Z,86.10
2023-03-08T17:56:16.130Z,87.20
2023-03-08T17:58:43.118Z,88.20
2023-03-08T18:01:22.026Z,88.60
2023-03-08T18:03:49.632Z,89.20
2023-03-08T18:06:34.950Z,90.00
2023-03-08T18:09:11.534Z,90.40
2023-03-08T18:11:38.152Z,90.40
2023-03-08T18:14:13.329Z,89.30
2023-03-08T18:16:41.763Z,89.10
2023-03-08T18:19:09.564Z,88.50
2023-03-08T18:21:36.491Z,87.80
2023-03-08T18:24:04.349Z,88.60
2023-03-08T18:26:30.939Z,87.90
2023-03-08T18:28:57.480Z,89.40
2023-03-08T18:31:25.409Z,89.60
2023-03-08T18:33:54.713Z,89.30
2023-03-08T18:36:22.670Z,90.70
2023-03-08T18:38:49.367Z,91.20
2023-03-08T18:41:26.447Z,91.60
2023-03-08T18:43:55.477Z,91.00
2023-03-08T18:46:27.787Z,91.90
2023-03-08T18:49:11.112Z,92.50
2023-03-08T18:51:41.644Z,92.70
2023-03-08T18:54:12.769Z,93.10
2023-03-08T18:56:39.627Z,93.30
2023-03-08T18:59:07.238Z,93.60
2023-03-08T19:01:34.014Z,93.80
2023-03-08T19:04:07.190Z,93.60
2023-03-08T19:06:35.410Z,93.90
2023-03-08T19:09:11.957Z,94.00
2023-03-08T19:11:38.779Z,93.50
2023-03-08T19:14:06.244Z,93.70
2023-03-08T19:16:35.439Z,94.00
2023-03-08T19:19:08.883Z,94.40
2023-03-08T19:21:40.590Z,94.70
2023-03-08T19:24:08.316Z,95.20
2023-03-08T19:26:37.581Z,95.40
2023-03-08T19:29:26.669Z,95.70
2023-03-08T19:32:00.058Z,95.70
2023-03-08T19:34:37.213Z,95.90
2023-03-08T19:37:06.017Z,95.50
2023-03-08T19:39:35.799Z,95.80
2023-03-08T19:42:10.237Z,96.10
2023-03-08T19:44:36.803Z,96.20
2023-03-08T19:47:03.878Z,96.10
2023-03-08T19:49:34.248Z,96.00
2023-03-08T19:52:04.228Z,96.60
2023-03-08T19:54:31.147Z,97.10
2023-03-08T19:56:58.773Z,96.70
2023-03-08T19:59:26.440Z,96.50
2023-03-08T20:01:54.523Z,96.30
2023-03-08T20:04:22.228Z,96.80
2023-03-08T20:06:50.426Z,96.30
2023-03-08T20:09:23.005Z,96.20
2023-03-08T20:11:54.910Z,96.50
2023-03-08T20:14:23.955Z,96.70
2023-03-08T20:16:51.154Z,97.00
2023-03-08T20:19:18.068Z,97.00
2023-03-08T20:21:44.592Z,96.50
2023-03-08T20:24:11.148Z,96.90
2023-03-08T20:26:38.118Z,97.00
2023-03-08T20:29:05.415Z,96.80
2023-03-08T20:31:32.897Z,96.90
2023-03-08T20:33:59.866Z,97.10
2023-03-08T20:36:27.746Z,97.10
2023-03-08T20:38:54.486Z,96.00
2023-03-08T20:41:21.702Z,96.00
2023-03-08T20:43:50.831Z,96.50
2023-03-08T20:46:20.400Z,96.10
2023-03-08T20:48:47.171Z,96.40
2023-03-08T20:51:17.427Z,96.20
2023-03-08T20:53:44.799Z,96.20
2023-03-08T20:56:17.100Z,96.30
2023-03-08T20:58:43.910Z,96.60
2023-03-08T21:01:19.484Z,96.90
2023-03-08T21:03:46.991Z,97.10
2023-03-08T21:06:23.766Z,96.80
2023-03-08T21:08:50.629Z,97.00
2023-03-08T21:11:18.131Z,97.50
2023-03-08T21:13:47.075Z,97.40
2023-03-08T21:16:16.691Z,97.30
2023-03-08T21:18:45.276Z,97.50
2023-03-08T21:21:26.405Z,97.40
2023-03-08T21:23:58.969Z,97.60
2023-03-08T21:26:28.440Z,97.90
2023-03-08T21:29:07.578Z,98.30
2023-03-08T21:31:38.795Z,98.40
2023-03-08T21:34:06.496Z,98.10
2023-03-08T21:36:34.405Z,97.90
2023-03-08T21:39:00.894Z,97.70
2023-03-08T21:41:33.451Z,97.00
2023-03-08T21:44:04.537Z,95.60
2023-03-08T21:46:31.516Z,94.20
2023-03-08T21:48:58.135Z,93.60
2023-03-08T21:51:24.764Z,93.60
2023-03-08T21:53:51.319Z,93.70
2023-03-08T21:56:18.077Z,93.90
2023-03-08T21:58:44.817Z,93.80
2023-03-08T22:01:23.805Z,94.10
2023-03-08T22:03:51.026Z,94.50
2023-03-08T22:06:18.063Z,94.90
2023-03-08T22:08:44.670Z,95.10
2023-03-08T22:11:11.243Z,95.60
2023-03-08T22:13:37.945Z,96.00
2023-03-08T22:16:05.571Z,96.10
2023-03-08T22:18:32.297Z,96.50
2023-03-08T22:20:59.545Z,96.60
2023-03-08T22:23:26.365Z,96.70
2023-03-08T22:25:54.124Z,96.80
2023-03-08T22:28:21.163Z,97.10
2023-03-08T22:30:48.282Z,97.30
2023-03-08T22:33:15.292Z,97.50
2023-03-08T22:35:46.667Z,97.40
2023-03-08T22:38:13.872Z,97.60
2023-03-08T22:40:41.971Z,97.50
2023-03-08T22:43:09.632Z,97.50
2023-03-08T22:45:36.347Z,97.50
2023-03-08T22:48:03.813Z,97.80
2023-03-08T22:50:30.481Z,97.80
2023-03-08T22:52:56.966Z,98.20
2023-03-08T22:55:23.448Z,97.90
2023-03-08T22:57:49.943Z,98.10
2023-03-08T23:00:17.180Z,98.30
2023-03-08T23:02:45.850Z,98.50
2023-03-08T23:05:19.679Z,98.60
2023-03-08T23:07:46.264Z,98.70
2023-03-08T23:10:15.289Z,98.70
2023-03-08T23:12:42.364Z,98.70
2023-03-08T23:15:09.601Z,98.70
2023-03-08T23:17:36.220Z,98.60
2023-03-08T23:20:04.852Z,98.50
2023-03-08T23:22:31.339Z,98.70
2023-03-08T23:24:57.801Z,99.10
2023-03-08T23:27:24.284Z,98.80
2023-03-08T23:29:53.565Z,98.70
2023-03-08T23:32:20.326Z,98.70
2023-03-08T23:34:47.049Z,99.10
2023-03-08T23:37:13.579Z,99.50
2023-03-08T23:39:40.087Z,99.40
2023-03-08T23:42:06.635Z,99.70
2023-03-08T23:44:33.151Z,99.90
2023-03-08T23:46:59.627Z,99.90
2023-03-08T23:49:26.151Z,99.90
2023-03-08T23:51:52.654Z,99.90
2023-03-08T23:54:19.159Z,99.90
2023-03-08T23:56:45.667Z,99.90
2023-03-08T23:59:19.361Z,99.90
